Time;durP1;ratioP1;P1;durP2;ratioP2;P2;SDS_P1;SDS_P2;PMS_P1;PMS_P2;Temp;Humidity;BMP_temperature;BMP_pressure;BME280_temperature;BME280_humidity;BME280_pressure;Samples;Min_cycle;Max_cycle;Signal;HPM_P1;HPM_P2
2023/02/22 00:02:09;;;;;;;9.50;5.67;;;7.90;73.30;;;11.06;47.85;97515.28;5031570;28;20056;-44
2023/02/22 00:04:41;;;;;;;12.10;6.00;;;7.80;73.30;;;11.02;47.34;97512.94;5031283;28;20052;-49
2023/02/22 00:07:08;;;;;;;8.50;4.37;;;7.80;73.50;;;10.99;47.48;97510.63;5030973;28;20424;-47
2023/02/22 00:09:36;;;;;;;9.80;5.37;;;7.80;73.60;;;10.98;47.41;97508.94;5029994;28;20072;-48
2023/02/22 00:12:04;;;;;;;8.47;5.53;;;7.80;73.70;;;10.97;47.46;97509.09;5031579;28;20068;-48
2023/02/22 00:14:31;;;;;;;10.87;5.50;;;7.80;73.60;;;10.93;47.42;97510.44;5031214;28;20055;-45
2023/02/22 00:16:59;;;;;;;11.20;5.13;;;7.80;73.70;;;10.94;47.39;97510.28;5031570;28;20401;-47
2023/02/22 00:19:29;;;;;;;10.23;5.23;;;7.80;73.40;;;10.95;47.60;97511.09;5030252;28;20057;-46
2023/02/22 00:21:57;;;;;;;8.70;4.57;;;7.80;73.60;;;10.95;47.57;97501.31;5030873;28;20049;-50
2023/02/22 00:24:24;;;;;;;9.80;5.10;;;7.80;73.60;;;10.95;47.58;97497.78;5029677;28;20048;-49
2023/02/22 00:26:54;;;;;;;9.13;5.30;;;7.80;73.50;;;10.94;47.79;97498.81;5031094;28;20041;-46
2023/02/22 00:29:23;;;;;;;9.87;5.23;;;7.80;73.60;;;10.91;47.90;97493.78;5013710;28;20048;-49
2023/02/22 00:31:51;;;;;;;9.67;5.13;;;7.70;74.60;;;10.89;48.02;97487.81;5031735;28;20045;-48
2023/02/22 00:34:22;;;;;;;10.33;5.73;;;7.70;73.90;;;10.89;48.16;97485.16;5029316;28;20052;-47
2023/02/22 00:36:50;;;;;;;8.67;5.30;;;7.80;74.20;;;10.91;48.35;97494.63;5030530;28;20489;-44
2023/02/22 00:39:17;;;;;;;8.73;5.17;;;7.80;74.10;;;10.92;47.88;97492.81;5031105;28;20045;-45
2023/02/22 00:41:45;;;;;;;12.20;5.90;;;7.80;73.80;;;10.93;47.88;97495.28;5028617;28;20041;-48
2023/02/22 00:44:13;;;;;;;11.33;5.13;;;7.80;73.80;;;10.92;48.14;97493.63;5029617;28;20056;-47
2023/02/22 00:46:41;;;;;;;7.20;4.10;;;7.80;74.10;;;10.95;48.10;97488.00;5029555;28;20493;-45
2023/02/22 00:49:08;;;;;;;9.60;5.30;;;7.90;74.20;;;10.97;48.25;97488.66;5031212;28;20508;-46
2023/02/22 00:51:36;;;;;;;8.97;4.60;;;7.90;74.20;;;10.97;48.21;97482.47;5030398;28;20527;-46
2023/02/22 00:54:04;;;;;;;7.30;4.30;;;7.90;74.30;;;10.98;48.00;97481.47;5029585;28;20124;-48
2023/02/22 00:56:33;;;;;;;8.20;4.13;;;7.90;74.10;;;10.98;47.97;97478.81;5030924;28;20038;-46
2023/02/22 00:59:00;;;;;;;8.93;5.17;;;7.90;73.80;;;11.00;48.12;97474.97;5028967;28;20041;-49
2023/02/22 01:01:30;;;;;;;9.27;5.07;;;7.90;73.60;;;11.01;47.87;97476.66;5030461;28;20523;-45
2023/02/22 01:03:58;;;;;;;7.37;4.20;;;8.00;73.70;;;11.04;47.59;97472.81;5029382;28;20033;-46
2023/02/22 01:06:25;;;;;;;8.60;4.57;;;7.90;73.50;;;11.07;47.88;97471.63;5030650;28;20045;-47
2023/02/22 01:08:53;;;;;;;10.63;5.07;;;8.00;73.50;;;11.08;47.86;97467.97;5029437;28;20049;-49
2023/02/22 01:11:24;;;;;;;12.50;5.47;;;8.00;73.40;;;11.08;47.77;97468.81;5029168;28;20045;-45
2023/02/22 01:13:52;;;;;;;10.53;4.97;;;8.00;73.20;;;11.11;47.62;97468.47;5028769;28;20425;-46
2023/02/22 01:16:21;;;;;;;10.07;5.67;;;8.00;73.10;;;11.12;47.71;97466.66;5030698;28;20048;-46
2023/02/22 01:18:49;;;;;;;6.33;4.73;;;8.00;73.10;;;11.13;47.86;97460.31;5030715;28;20045;-50
2023/02/22 01:21:17;;;;;;;8.03;4.70;;;8.00;73.00;;;11.12;47.58;97462.13;5029142;28;20046;-47
2023/02/22 01:23:45;;;;;;;7.90;4.17;;;8.00;73.10;;;11.14;47.79;97460.13;5028845;28;20041;-48
2023/02/22 01:26:14;;;;;;;8.10;4.60;;;8.10;73.40;;;11.19;48.19;97451.66;5030545;28;20057;-44
2023/02/22 01:28:41;;;;;;;7.00;4.23;;;8.10;73.20;;;11.25;48.09;97447.47;5030244;28;20489;-48
2023/02/22 01:31:09;;;;;;;8.23;5.10;;;8.20;73.00;;;11.28;48.07;97450.59;5030916;28;20093;-46
2023/02/22 01:33:37;;;;;;;8.13;5.23;;;8.20;72.80;;;11.29;47.89;97449.63;5016276;28;20505;-47
2023/02/22 01:36:10;;;;;;;9.70;5.07;;;8.20;73.00;;;11.29;47.58;97446.97;5033967;28;20048;-51
2023/02/22 01:38:38;;;;;;;10.70;5.43;;;8.30;72.80;;;11.31;47.58;97447.63;5032534;28;20045;-49
2023/02/22 01:41:06;;;;;;;10.70;5.77;;;8.30;72.70;;;11.32;47.64;97435.13;5032541;28;20390;-46
2023/02/22 01:43:36;;;;;;;9.33;4.67;;;8.30;72.50;;;11.32;47.38;97440.44;5016739;28;20049;-47
2023/02/22 01:46:19;;;;;;;11.73;5.97;;;8.30;72.20;;;11.29;47.33;97430.97;5032684;28;20517;-46
2023/02/22 01:48:59;;;;;;;8.23;4.70;;;8.30;71.90;;;11.30;47.51;97429.13;5032485;28;20045;-49
2023/02/22 01:51:36;;;;;;;9.70;4.40;;;8.30;72.00;;;11.29;47.52;97430.16;5010433;28;20497;-45
2023/02/22 01:54:20;;;;;;;8.17;4.93;;;8.20;72.00;;;11.29;47.30;97422.97;5032660;28;20052;-48
2023/02/22 01:57:28;;;;;;;9.93;4.88;;;8.30;72.20;;;11.31;47.59;97414.81;5029733;28;20053;-47
2023/02/22 02:00:11;;;;;;;9.27;4.57;;;8.30;71.80;;;11.31;47.48;97420.97;5034554;28;20056;-49
2023/02/22 02:02:48;;;;;;;8.50;5.00;;;8.30;71.80;;;11.33;47.47;97412.81;5033605;28;20416;-47
2023/02/22 02:05:20;;;;;;;7.70;4.90;;;8.40;71.60;;;11.34;47.53;97409.97;5032652;28;20590;-45
2023/02/22 02:07:48;;;;;;;10.23;4.67;;;8.30;71.40;;;11.33;47.18;97412.81;5032852;28;20041;-45
2023/02/22 02:10:20;;;;;;;8.60;5.27;;;8.30;71.70;;;11.30;47.16;97405.13;5032881;28;20512;-47
2023/02/22 02:12:50;;;;;;;9.53;4.90;;;8.20;71.50;;;11.27;47.62;97410.84;5032105;28;20440;-46
2023/02/22 02:15:32;;;;;;;8.30;5.43;;;8.20;71.70;;;11.26;47.26;97407.31;5031983;28;20045;-47
2023/02/22 02:18:09;;;;;;;8.03;6.30;;;8.20;71.70;;;11.26;47.21;97406.50;5032155;28;20033;-48
2023/02/22 02:21:03;;;;;;;7.03;4.97;;;8.20;71.70;;;11.26;47.50;97399.31;5032565;28;20493;-45
2023/02/22 02:23:48;;;;;;;9.70;5.90;;;8.30;71.60;;;11.25;47.18;97389.69;5027110;28;20037;-49
2023/02/22 02:26:48;;;;;;;11.10;5.87;;;8.30;71.70;;;11.19;47.71;97391.19;5031679;28;20485;-46
2023/02/22 02:29:27;;;;;;;11.43;5.77;;;8.30;71.60;;;11.22;47.24;97384.69;5015461;28;20042;-47
2023/02/22 02:32:10;;;;;;;8.50;5.00;;;8.30;71.40;;;11.16;47.59;97388.03;5033010;28;20037;-49
2023/02/22 02:35:28;;;;;;;9.50;6.00;;;8.30;71.20;;;11.17;47.49;97387.88;5031537;28;20049;-45
2023/02/22 02:38:15;;;;;;;7.63;5.53;;;8.40;70.90;;;11.14;47.60;97382.88;5029290;28;20060;-50
2023/02/22 02:41:02;;;;;;;7.00;4.43;;;8.40;70.80;;;11.14;47.92;97380.19;5015919;28;20079;-48
2023/02/22 02:43:47;;;;;;;10.17;5.53;;;8.40;71.10;;;11.19;47.45;97374.38;5024700;28;20516;-48
2023/02/22 02:46:49;;;;;;;10.40;5.27;;;8.40;70.80;;;11.20;47.59;97382.19;5031619;28;20412;-47
2023/02/22 02:49:38;;;;;;;8.70;5.07;;;8.40;70.80;;;11.29;47.52;97377.66;5030435;28;20502;-50
2023/02/22 02:52:08;;;;;;;6.73;4.30;;;8.40;70.80;;;11.29;47.58;97372.34;5032723;28;20528;-46
2023/02/22 02:54:38;;;;;;;9.43;5.17;;;8.50;70.70;;;11.27;47.53;97365.53;5031176;28;20041;-48
2023/02/22 02:57:08;;;;;;;9.23;4.97;;;8.50;70.70;;;11.27;47.82;97366.34;5033475;28;20400;-48
2023/02/22 02:59:37;;;;;;;10.30;5.40;;;8.50;70.50;;;11.30;47.44;97370.50;5029380;28;20045;-48
2023/02/22 03:02:43;;;;;;;8.37;4.83;;;8.50;70.50;;;11.29;47.36;97366.19;5034243;28;20049;-44
2023/02/22 03:05:18;;;;;;;8.67;5.30;;;8.50;70.60;;;11.26;47.30;97356.69;5050496;28;20055;-46
2023/02/22 03:08:12;;;;;;;9.67;6.10;;;8.50;70.50;;;11.25;47.51;97355.03;5017928;28;20041;-48
2023/02/22 03:11:05;;;;;;;11.48;5.30;;;8.50;70.70;;;11.27;47.34;97354.88;5028627;28;20045;-46
2023/02/22 03:13:49;;;;;;;10.90;5.63;;;8.50;70.50;;;11.22;47.32;97356.22;5029000;28;20048;-45
2023/02/22 03:16:28;;;;;;;8.23;4.57;;;8.50;70.40;;;11.22;47.49;97350.03;5033788;28;20108;-48
2023/02/22 03:19:18;;;;;;;8.20;5.93;;;8.50;70.50;;;11.22;47.56;97347.38;5052379;28;20057;-45
2023/02/22 03:22:07;;;;;;;9.70;5.50;;;8.40;70.60;;;11.24;47.83;97342.69;5046067;28;20412;-46
2023/02/22 03:24:51;;;;;;;7.43;5.40;;;8.40;70.70;;;11.30;47.65;97347.38;5028078;28;20037;-47
2023/02/22 03:27:33;;;;;;;8.33;5.33;;;8.40;70.80;;;11.34;47.45;97343.34;5036037;28;20041;-46
2023/02/22 03:30:14;;;;;;;10.53;5.40;;;8.40;70.80;;;11.38;47.42;97338.47;5026358;28;20044;-51
2023/02/22 03:32:48;;;;;;;11.20;6.07;;;8.40;71.30;;;11.40;47.10;97339.16;5034705;28;20052;-48
2023/02/22 03:35:29;;;;;;;10.13;5.55;;;8.40;70.70;;;11.43;47.14;97330.78;5017353;28;20513;-53
2023/02/22 03:38:01;;;;;;;10.43;5.77;;;8.40;70.70;;;11.44;47.04;97332.47;5035359;28;20045;-51
2023/02/22 03:40:36;;;;;;;11.40;6.33;;;8.40;70.80;;;11.41;46.88;97330.97;5027529;28;20044;-48
2023/02/22 03:43:42;;;;;;;12.07;7.20;;;8.40;70.80;;;11.37;47.12;97328.84;5053204;28;20056;-49
2023/02/22 03:46:15;;;;;;;9.53;5.60;;;8.30;70.80;;;11.38;46.79;97328.66;5041040;28;20040;-50
2023/02/22 03:49:02;;;;;;;11.43;5.67;;;8.30;70.80;;;11.35;47.06;97326.34;5037133;28;20041;-46
2023/02/22 03:51:34;;;;;;;8.33;5.80;;;8.30;71.10;;;11.35;47.40;97328.19;5031151;28;20416;-49
2023/02/22 03:54:04;;;;;;;9.67;6.00;;;8.20;71.10;;;11.32;47.03;97332.03;5036773;28;20071;-48
2023/02/22 03:56:48;;;;;;;9.52;5.57;;;8.20;71.30;;;11.32;46.99;97328.50;5037544;28;20044;-46
2023/02/22 03:59:24;;;;;;;5.77;4.60;;;8.10;71.50;;;11.31;47.09;97335.69;5038861;28;20044;-47
2023/02/22 04:01:56;;;;;;;9.13;5.78;;;8.10;71.60;;;11.29;46.91;97326.22;5054550;28;20401;-47
2023/02/22 04:04:25;;;;;;;8.43;5.27;;;8.10;71.70;;;11.26;47.37;97335.38;5052939;28;20077;-45
2023/02/22 04:06:53;;;;;;;8.60;5.83;;;8.10;71.50;;;11.22;46.92;97334.91;5036568;28;20036;-48
2023/02/22 04:09:21;;;;;;;12.77;6.30;;;8.00;71.60;;;11.17;47.03;97325.75;5069986;28;20044;-47
2023/02/22 04:11:49;;;;;;;8.37;5.73;;;7.90;71.90;;;11.15;47.23;97322.44;5053235;28;20045;-48
2023/02/22 04:14:16;;;;;;;8.97;5.90;;;7.90;72.00;;;11.14;46.99;97326.09;5053053;28;20456;-49
2023/02/22 04:16:44;;;;;;;8.50;5.23;;;8.00;71.70;;;11.09;47.66;97329.28;5052832;28;20051;-50
2023/02/22 04:19:11;;;;;;;8.77;4.87;;;7.90;71.80;;;11.02;47.72;97333.63;5071107;28;20049;-48
2023/02/22 04:21:39;;;;;;;9.47;6.27;;;7.90;72.20;;;11.00;47.32;97336.47;5052670;28;20056;-45
2023/02/22 04:24:14;;;;;;;10.33;5.47;;;7.80;72.40;;;10.99;47.17;97329.50;5052764;28;20040;-45
2023/02/22 04:26:42;;;;;;;10.07;5.73;;;7.80;72.30;;;10.97;47.41;97330.66;5052538;28;20055;-47
2023/02/22 04:29:11;;;;;;;8.57;5.40;;;7.80;72.50;;;10.91;47.33;97332.16;5052809;28;20047;-50
2023/02/22 04:31:40;;;;;;;11.10;6.50;;;7.70;72.40;;;10.82;47.39;97335.88;5037238;28;20040;-47
2023/02/22 04:34:09;;;;;;;8.83;5.23;;;7.60;72.70;;;10.76;47.25;97332.03;5053071;28;20059;-47
2023/02/22 04:36:41;;;;;;;9.00;5.13;;;7.50;72.80;;;10.72;47.53;97333.41;5052620;28;20508;-47
2023/02/22 04:39:09;;;;;;;9.37;6.43;;;7.50;72.90;;;10.66;47.23;97331.38;5052645;28;20048;-49
2023/02/22 04:41:36;;;;;;;9.97;5.93;;;7.40;73.00;;;10.60;47.09;97332.06;5052201;28;20049;-44
2023/02/22 04:44:08;;;;;;;12.63;6.70;;;7.30;73.30;;;10.53;47.38;97329.25;5052493;28;20288;-51
2023/02/22 04:46:35;;;;;;;10.37;6.83;;;7.20;73.50;;;10.49;47.73;97329.75;5070824;28;20265;-48
2023/02/22 04:49:03;;;;;;;7.87;5.83;;;7.20;74.00;;;10.40;47.82;97331.59;5070610;28;20040;-46
2023/02/22 04:51:35;;;;;;;10.00;6.37;;;7.10;74.20;;;10.36;48.22;97332.94;5052171;28;20055;-47
2023/02/22 04:54:06;;;;;;;8.90;6.50;;;7.10;74.70;;;10.37;47.83;97337.25;5068278;28;20052;-46
2023/02/22 04:56:36;;;;;;;9.13;6.00;;;7.10;74.70;;;10.38;47.99;97330.94;5051686;28;20048;-47
2023/02/22 04:59:05;;;;;;;11.90;6.00;;;7.20;74.30;;;10.39;47.79;97329.91;5050153;28;20051;-48
2023/02/22 05:01:36;;;;;;;10.17;5.80;;;7.10;74.40;;;10.39;48.25;97327.25;5052705;28;20045;-46
2023/02/22 05:04:06;;;;;;;11.20;5.83;;;7.10;74.40;;;10.38;47.75;97325.63;5051652;28;20052;-45
2023/02/22 05:06:33;;;;;;;8.00;5.30;;;7.10;74.40;;;10.37;48.30;97326.59;5052695;28;20048;-45
2023/02/22 05:09:02;;;;;;;7.67;5.20;;;7.10;74.60;;;10.36;48.22;97324.94;5070889;28;20048;-46
2023/02/22 05:11:30;;;;;;;9.23;6.07;;;7.10;74.60;;;10.36;48.34;97324.94;5062932;28;20047;-51
2023/02/22 05:13:57;;;;;;;10.03;5.50;;;7.10;74.70;;;10.35;47.84;97320.63;5070381;28;20037;-49
2023/02/22 05:16:25;;;;;;;12.00;5.73;;;7.10;74.40;;;10.34;47.96;97325.13;5070316;28;20044;-45
2023/02/22 05:18:52;;;;;;;11.70;6.03;;;7.10;74.70;;;10.34;47.83;97318.97;5052788;28;20479;-46
2023/02/22 05:21:20;;;;;;;11.53;6.70;;;7.10;75.40;;;10.34;48.13;97318.97;5052736;28;20048;-46
2023/02/22 05:23:48;;;;;;;10.57;6.13;;;7.20;74.40;;;10.34;48.02;97314.47;5070339;28;20047;-47
2023/02/22 05:26:15;;;;;;;7.77;6.00;;;7.20;74.20;;;10.34;48.23;97303.00;5070524;28;20052;-47
2023/02/22 05:28:43;;;;;;;9.07;5.53;;;7.10;74.10;;;10.29;48.26;97314.09;5070301;28;20040;-48
2023/02/22 05:31:11;;;;;;;10.13;6.10;;;7.10;74.20;;;10.28;47.83;97312.44;5070140;28;20504;-47
2023/02/22 05:33:39;;;;;;;10.40;6.30;;;7.10;74.50;;;10.30;48.27;97309.63;5070289;28;20036;-47
2023/02/22 05:36:07;;;;;;;8.53;5.63;;;7.10;74.70;;;10.30;48.41;97304.31;5070207;28;20055;-47
2023/02/22 05:38:42;;;;;;;12.33;6.80;;;7.10;74.70;;;10.29;48.46;97310.63;5070046;28;20045;-45
2023/02/22 05:41:12;;;;;;;9.53;6.60;;;7.10;74.90;;;10.27;48.06;97309.94;5070157;28;20040;-46
2023/02/22 05:43:40;;;;;;;9.93;5.97;;;7.10;74.90;;;10.28;48.10;97314.28;5035614;28;20072;-46
2023/02/22 05:46:08;;;;;;;11.77;6.43;;;7.10;74.80;;;10.25;48.53;97310.13;5051793;28;20419;-48
2023/02/22 05:48:35;;;;;;;9.93;5.93;;;7.00;74.70;;;10.22;48.46;97310.47;5070172;28;20036;-44
2023/02/22 05:51:03;;;;;;;12.27;6.70;;;7.00;75.20;;;10.22;48.71;97307.81;5070094;28;20484;-45
2023/02/22 05:53:31;;;;;;;9.10;5.83;;;7.00;75.20;;;10.22;48.44;97305.97;5061490;28;20041;-44
2023/02/22 05:55:58;;;;;;;12.97;6.47;;;7.00;75.00;;;10.23;48.57;97310.28;5069453;28;20492;-46
2023/02/22 05:58:26;;;;;;;9.10;5.87;;;7.00;74.90;;;10.19;48.50;97306.28;5069996;28;20060;-46
2023/02/22 06:00:53;;;;;;;11.07;5.90;;;7.00;75.10;;;10.17;48.70;97307.47;5070258;28;20463;-45
2023/02/22 06:03:21;;;;;;;10.77;6.03;;;7.00;75.50;;;10.18;48.68;97309.16;5070198;28;20048;-46
2023/02/22 06:05:49;;;;;;;9.50;5.43;;;7.10;75.60;;;10.17;48.35;97307.47;5069603;28;20081;-47
2023/02/22 06:08:16;;;;;;;11.20;6.13;;;7.00;75.20;;;10.15;48.71;97307.63;5070037;28;20047;-46
2023/02/22 06:10:44;;;;;;;10.70;6.20;;;7.00;75.20;;;10.12;48.35;97307.97;5069947;28;20045;-49
2023/02/22 06:13:12;;;;;;;10.97;6.97;;;6.90;75.40;;;10.11;48.62;97308.13;5069581;28;20051;-45
2023/02/22 06:15:39;;;;;;;11.57;6.00;;;6.90;75.60;;;10.07;48.32;97301.50;5069723;28;20090;-48
2023/02/22 06:18:07;;;;;;;11.43;6.07;;;6.80;75.60;;;10.04;48.75;97311.47;5072073;28;20045;-46
2023/02/22 06:20:34;;;;;;;11.13;5.97;;;6.80;75.80;;;10.06;48.86;97308.63;5073670;28;20048;-48
2023/02/22 06:23:02;;;;;;;7.80;5.90;;;6.90;76.00;;;10.06;48.60;97313.94;5071984;28;20040;-47
2023/02/22 06:25:30;;;;;;;9.27;6.10;;;6.90;76.00;;;10.06;48.95;97319.25;5072300;28;20066;-49
2023/02/22 06:27:59;;;;;;;10.03;5.93;;;6.90;75.90;;;10.08;49.02;97322.59;5055533;28;20044;-47
2023/02/22 06:30:28;;;;;;;12.30;6.03;;;6.90;75.80;;;10.09;48.85;97323.44;5072562;28;20051;-47
2023/02/22 06:32:56;;;;;;;9.73;5.60;;;6.90;75.70;;;10.11;49.07;97326.75;5072574;28;20039;-47
2023/02/22 06:35:23;;;;;;;11.90;7.47;;;7.00;76.00;;;10.13;48.90;97325.59;5072872;28;20526;-45
2023/02/22 06:37:51;;;;;;;11.93;6.20;;;7.00;75.80;;;10.16;48.79;97327.91;5055339;28;20052;-47
2023/02/22 06:40:19;;;;;;;8.37;5.93;;;7.10;76.00;;;10.20;48.82;97337.22;5073145;28;20045;-48
2023/02/22 06:42:48;;;;;;;9.03;5.53;;;7.10;75.90;;;10.24;49.01;97329.75;5073136;28;20415;-48
2023/02/22 06:45:17;;;;;;;7.80;5.53;;;7.10;75.80;;;10.28;49.12;97331.06;5072269;28;20396;-49
2023/02/22 06:47:45;;;;;;;10.37;5.97;;;7.10;75.70;;;10.28;48.87;97332.91;5072270;28;20060;-47
2023/02/22 06:50:25;;;;;;;10.47;6.97;;;7.10;75.70;;;10.31;48.59;97344.06;5072389;28;20515;-47
2023/02/22 06:52:52;;;;;;;12.97;6.73;;;7.10;75.70;;;10.29;48.54;97343.38;5072795;28;20041;-47
2023/02/22 06:55:27;;;;;;;11.93;7.13;;;7.10;75.70;;;10.28;49.11;97348.88;5072070;28;20056;-46
2023/02/22 06:57:55;;;;;;;13.80;5.80;;;7.10;75.90;;;10.27;48.91;97345.38;5072834;28;20040;-45
2023/02/22 07:00:25;;;;;;;11.40;7.77;;;7.10;76.00;;;10.29;48.80;97342.53;5055050;28;20060;-46
2023/02/22 07:02:53;;;;;;;10.47;7.03;;;7.10;76.00;;;10.24;48.89;97348.38;5055108;28;20500;-44
2023/02/22 07:05:23;;;;;;;10.40;6.97;;;7.00;76.00;;;10.20;48.66;97353.19;5072392;28;20048;-49
2023/02/22 07:07:54;;;;;;;17.20;8.03;;;7.00;76.10;;;10.21;48.50;97354.00;5072616;28;20045;-48
2023/02/22 07:10:29;;;;;;;9.07;5.80;;;6.90;75.90;;;10.17;48.66;97348.19;5072567;28;20045;-44
2023/02/22 07:12:56;;;;;;;10.90;5.60;;;6.90;76.20;;;10.10;48.18;97352.53;5072684;28;20040;-49
2023/02/22 07:15:27;;;;;;;8.67;6.20;;;6.70;75.00;;;10.00;48.09;97359.81;5072245;28;20044;-48
2023/02/22 07:17:55;;;;;;;12.77;5.73;;;6.60;75.70;;;9.87;48.30;97357.66;5072498;28;20048;-50
2023/02/22 07:20:26;;;;;;;10.63;5.13;;;6.40;75.80;;;9.74;48.56;97366.09;5055001;28;20216;-48
2023/02/22 07:22:53;;;;;;;9.30;5.40;;;6.30;77.20;;;9.73;48.50;97363.59;5072729;28;20073;-45
2023/02/22 07:25:23;;;;;;;10.57;5.70;;;6.30;77.40;;;9.63;49.07;97366.38;5072113;28;20052;-49
2023/02/22 07:27:54;;;;;;;8.43;5.83;;;6.20;78.00;;;9.54;49.04;97365.56;5054328;28;20036;-48
2023/02/22 07:30:31;;;;;;;9.33;6.47;;;6.10;79.50;;;9.48;49.68;97360.88;5072217;28;20636;-46
2023/02/22 07:33:02;;;;;;;8.30;5.47;;;6.10;79.90;;;9.50;49.87;97366.88;5054991;28;20051;-47
2023/02/22 07:35:36;;;;;;;10.97;6.87;;;6.20;80.00;;;9.58;50.02;97371.38;5071775;28;20059;-46
2023/02/22 07:38:06;;;;;;;;;;;6.30;80.10;;;9.63;49.55;97369.03;5055027;28;20051;-45
2023/02/22 07:40:36;;;;;;;8.87;6.00;;;6.30;80.70;;;9.63;49.78;97366.38;5071621;28;19920;-45
2023/02/22 07:43:21;;;;;;;12.80;7.03;;;6.30;80.50;;;9.55;49.81;97375.16;5068482;28;20049;-48
2023/02/22 07:45:52;;;;;;;10.60;6.37;;;6.30;80.70;;;9.56;50.01;97368.88;5064798;28;20043;-46
2023/02/22 07:48:24;;;;;;;10.80;6.60;;;6.30;81.20;;;9.63;50.13;97377.03;5071662;28;20044;-45
2023/02/22 07:50:52;;;;;;;11.13;6.43;;;6.40;80.80;;;9.48;50.73;97368.00;5071393;28;20051;-45
2023/02/22 07:53:23;;;;;;;13.50;6.77;;;6.30;81.20;;;9.48;50.47;97368.84;5061621;28;20040;-47
2023/02/22 07:55:51;;;;;;;11.83;6.80;;;6.20;82.00;;;9.48;50.60;97373.31;5070913;28;20045;-48
2023/02/22 07:58:23;;;;;;;11.57;7.13;;;6.20;82.70;;;9.55;50.76;97375.16;5069625;28;20044;-47
2023/02/22 08:00:50;;;;;;;9.10;6.63;;;6.30;82.70;;;9.62;50.47;97370.88;5070732;28;20049;-45
2023/02/22 08:03:21;;;;;;;11.40;6.33;;;6.40;82.30;;;9.58;50.89;97371.38;5071622;28;20060;-48
2023/02/22 08:05:55;;;;;;;16.70;6.97;;;6.30;82.60;;;9.64;50.53;97368.06;5054038;28;20416;-49
2023/02/22 08:08:23;;;;;;;10.45;6.72;;;6.40;82.80;;;9.71;50.63;97370.91;5071515;28;20040;-49
2023/02/22 08:10:51;;;;;;;12.03;6.93;;;6.50;82.60;;;9.73;50.80;97371.56;5071594;28;20492;-45
2023/02/22 08:13:21;;;;;;;10.40;6.83;;;6.50;82.20;;;9.78;50.56;97374.56;5054108;28;20051;-48
2023/02/22 08:15:53;;;;;;;10.63;7.13;;;6.60;82.50;;;9.80;50.99;97376.06;5071236;28;20051;-46
2023/02/22 08:18:23;;;;;;;10.03;6.13;;;6.60;82.40;;;9.85;50.89;97368.44;5071591;28;20049;-46
2023/02/22 08:20:52;;;;;;;8.63;6.53;;;6.70;82.20;;;9.93;50.92;97374.78;5071543;28;20040;-47
2023/02/22 08:23:24;;;;;;;10.07;6.27;;;6.80;82.00;;;10.05;50.44;97366.31;5071183;28;20049;-44
2023/02/22 08:25:52;;;;;;;8.97;5.97;;;6.90;81.50;;;10.07;50.32;97368.81;5070568;28;20044;-45
2023/02/22 08:28:22;;;;;;;10.50;6.97;;;6.90;80.90;;;10.11;50.61;97371.97;5071294;28;20045;-49
2023/02/22 08:30:50;;;;;;;9.20;6.40;;;7.00;81.20;;;10.16;50.97;97373.16;5070913;28;20041;-47
2023/02/22 08:33:18;;;;;;;11.83;7.37;;;7.00;81.10;;;10.25;50.66;97372.16;5071043;28;20048;-47
2023/02/22 08:35:48;;;;;;;11.30;6.23;;;7.10;81.00;;;10.33;50.29;97368.69;5070319;28;20051;-46
2023/02/22 08:38:22;;;;;;;8.30;5.73;;;7.20;80.40;;;10.36;50.32;97376.34;5053268;28;20051;-45
2023/02/22 08:40:50;;;;;;;11.07;6.22;;;7.30;80.20;;;10.47;50.41;97374.31;5070020;28;20498;-45
2023/02/22 08:43:19;;;;;;;7.73;5.30;;;7.40;80.10;;;10.54;49.93;97376.16;5052750;28;20044;-46
2023/02/22 08:45:48;;;;;;;8.23;5.70;;;7.40;79.20;;;10.61;50.26;97374.50;5070092;28;20053;-47
2023/02/22 08:48:17;;;;;;;9.17;5.83;;;7.50;79.50;;;10.75;50.25;97367.66;5070612;28;20044;-44
2023/02/22 08:50:45;;;;;;;8.40;5.23;;;7.70;79.10;;;10.90;49.73;97366.97;5062638;28;20052;-47
2023/02/22 08:53:15;;;;;;;9.77;5.70;;;7.80;78.70;;;11.01;49.90;97366.59;5052932;28;20044;-47
2023/02/22 08:55:43;;;;;;;8.23;5.93;;;8.00;78.10;;;11.04;49.80;97364.41;5062419;28;20250;-49
2023/02/22 08:58:11;;;;;;;10.67;5.63;;;8.10;77.70;;;11.15;49.55;97365.06;5035627;28;20504;-44
2023/02/22 09:00:40;;;;;;;9.17;5.43;;;8.20;77.50;;;11.28;49.82;97367.19;5069987;28;20299;-50
2023/02/22 09:03:12;;;;;;;9.20;5.40;;;8.30;77.60;;;11.42;49.51;97364.63;5070761;28;20048;-47
2023/02/22 09:06:06;;;;;;;8.30;5.60;;;8.50;77.30;;;11.51;49.73;97365.41;5070320;28;20036;-45
2023/02/22 09:08:34;;;;;;;9.30;6.22;;;8.60;76.40;;;11.63;49.22;97365.84;5070736;28;20052;-46
2023/02/22 09:11:02;;;;;;;7.50;5.63;;;8.70;76.10;;;11.62;48.95;97359.69;5070605;28;20044;-49
2023/02/22 09:13:29;;;;;;;17.20;11.73;;;8.70;76.10;;;11.73;49.33;97353.16;5069568;28;20059;-48
2023/02/22 09:15:57;;;;;;;12.20;9.10;;;8.80;76.20;;;11.86;49.12;97351.72;5070588;28;20052;-46
2023/02/22 09:18:27;;;;;;;7.30;6.00;;;8.90;75.90;;;11.96;49.39;97357.69;5052553;28;20056;-49
2023/02/22 09:21:10;;;;;;;14.10;10.00;;;9.00;75.80;;;12.01;49.00;97355.31;5070667;28;20504;-47
2023/02/22 09:23:38;;;;;;;11.57;7.83;;;9.10;76.10;;;12.11;48.65;97357.75;5069825;28;20565;-47
2023/02/22 09:26:09;;;;;;;11.33;7.13;;;9.10;75.70;;;12.24;49.09;97359.84;5052620;28;20047;-45
2023/02/22 09:28:36;;;;;;;10.40;6.60;;;9.20;75.50;;;12.33;48.62;97351.59;5070422;28;20040;-47
2023/02/22 09:31:04;;;;;;;9.00;6.17;;;9.40;75.20;;;12.46;48.58;97350.97;5070343;28;20044;-48
2023/02/22 09:33:31;;;;;;;10.27;6.13;;;9.50;74.80;;;12.59;48.46;97353.84;5070453;28;20045;-51
2023/02/22 09:36:00;;;;;;;8.97;6.27;;;9.60;74.30;;;12.72;48.50;97344.41;5070153;28;20040;-49
2023/02/22 09:38:29;;;;;;;12.13;7.13;;;9.80;74.20;;;12.84;48.37;97342.94;5070004;28;20048;-45
2023/02/22 09:41:31;;;;;;;10.00;6.50;;;9.90;74.30;;;12.94;48.41;97343.50;5070811;28;20495;-49
2023/02/22 09:44:23;;;;;;;11.87;5.90;;;10.00;73.80;;;13.07;48.46;97344.72;5049367;28;20045;-46
2023/02/22 09:46:53;;;;;;;10.03;6.43;;;10.10;74.00;;;13.13;48.13;97344.78;5062969;28;20043;-45
2023/02/22 09:49:30;;;;;;;11.03;6.93;;;10.20;73.70;;;13.25;48.14;97344.34;5069818;28;20044;-47
2023/02/22 09:52:10;;;;;;;10.27;7.40;;;10.30;73.30;;;13.34;48.03;97336.06;5072025;28;20048;-45
2023/02/22 09:54:44;;;;;;;14.17;7.43;;;10.50;73.10;;;13.44;48.08;97333.09;5073905;28;20049;-46
2023/02/22 09:57:20;;;;;;;10.30;6.20;;;10.60;73.10;;;13.56;47.85;97333.44;5056017;28;20052;-50
2023/02/22 10:00:22;;;;;;;12.87;7.03;;;10.60;72.70;;;13.61;48.09;97344.41;5048980;28;20043;-46
2023/02/22 10:03:35;;;;;;;22.77;7.57;;;10.70;72.00;;;13.68;47.58;97334.59;5044579;28;20063;-46
2023/02/22 10:06:13;;;;;;;10.60;5.43;;;10.80;71.30;;;13.76;47.06;97339.88;5052233;28;20041;-48
2023/02/22 10:08:43;;;;;;;7.57;5.70;;;10.80;70.40;;;13.79;46.60;97335.97;5056796;28;20045;-49
2023/02/22 10:11:17;;;;;;;9.63;5.87;;;10.80;70.00;;;13.72;46.09;97338.56;5056065;28;20048;-48
2023/02/22 10:14:03;;;;;;;10.70;5.88;;;10.80;68.20;;;13.63;45.78;97342.38;5073863;28;20036;-48
2023/02/22 10:16:54;;;;;;;9.43;5.60;;;10.80;67.00;;;13.70;46.29;97332.56;5074456;28;20040;-49
2023/02/22 10:19:37;;;;;;;8.67;6.30;;;10.80;68.20;;;13.78;45.98;97334.28;5074703;28;20048;-50
2023/02/22 10:22:44;;;;;;;10.93;7.50;;;10.80;67.50;;;13.77;46.08;97332.66;5074557;28;20098;-50
2023/02/22 10:25:20;;;;;;;10.73;7.03;;;10.90;68.00;;;13.80;46.07;97332.25;5052479;28;20439;-49
2023/02/22 10:28:05;;;;;;;10.80;6.80;;;10.90;68.20;;;13.73;46.09;97334.06;5056921;28;20404;-51
2023/02/22 10:30:41;;;;;;;9.30;6.53;;;11.00;67.70;;;13.87;46.18;97327.00;5055067;28;20503;-46
2023/02/22 10:33:17;;;;;;;9.03;6.43;;;11.00;68.10;;;13.95;45.97;97322.34;5059800;28;21735;-52
2023/02/22 10:35:46;;;;;;;10.83;7.50;;;11.00;67.40;;;14.00;45.79;97327.13;5049417;28;20496;-48
2023/02/22 10:38:27;;;;;;;11.05;7.22;;;11.10;68.70;;;14.08;46.00;97326.19;5068469;28;20488;-47
2023/02/22 10:41:07;;;;;;;14.07;8.60;;;11.20;68.50;;;14.04;46.06;97315.03;5069539;28;20441;-49
2023/02/22 10:43:40;;;;;;;13.03;7.50;;;11.20;68.00;;;14.14;46.10;97320.88;5069058;28;20053;-51
2023/02/22 10:46:16;;;;;;;11.57;8.13;;;11.30;67.90;;;14.12;45.86;97320.25;5051278;28;20052;-51
2023/02/22 10:48:49;;;;;;;13.63;8.18;;;11.20;68.60;;;14.10;46.25;97321.47;5068867;28;20041;-52